sensor_id;sensor_type;location;lat;lon;timestamp;temperature;humidity
14519;DHT22;7346;50.846;4.388;2022-09-02T00:00:22;21.10;99.90
14519;DHT22;7346;50.846;4.388;2022-09-02T00:02:49;21.10;99.90
14519;DHT22;7346;50.846;4.388;2022-09-02T00:05:16;21.10;99.90
14519;DHT22;7346;50.846;4.388;2022-09-02T00:07:44;21.10;99.90
14519;DHT22;7346;50.846;4.388;2022-09-02T00:10:11;21.10;99.90
14519;DHT22;7346;50.846;4.388;2022-09-02T00:12:40;21.00;99.90
14519;DHT22;7346;50.846;4.388;2022-09-02T00:15:07;21.00;99.90
14519;DHT22;7346;50.846;4.388;2022-09-02T00:17:34;21.00;99.90
14519;DHT22;7346;50.846;4.388;2022-09-02T00:20:02;21.00;99.90
14519;DHT22;7346;50.846;4.388;2022-09-02T00:22:29;20.90;99.90
14519;DHT22;7346;50.846;4.388;2022-09-02T00:24:57;20.90;99.90
14519;DHT22;7346;50.846;4.388;2022-09-02T00:27:23;20.80;99.90
14519;DHT22;7346;50.846;4.388;2022-09-02T00:29:52;20.80;99.90
14519;DHT22;7346;50.846;4.388;2022-09-02T00:32:19;20.80;99.90
14519;DHT22;7346;50.846;4.388;2022-09-02T00:34:46;20.80;99.90
14519;DHT22;7346;50.846;4.388;2022-09-02T00:37:13;20.70;99.90
14519;DHT22;7346;50.846;4.388;2022-09-02T00:39:40;20.80;99.90
14519;DHT22;7346;50.846;4.388;2022-09-02T00:42:07;20.80;99.90
14519;DHT22;7346;50.846;4.388;2022-09-02T00:44:34;20.70;99.90
14519;DHT22;7346;50.846;4.388;2022-09-02T00:47:03;20.70;99.90
14519;DHT22;7346;50.846;4.388;2022-09-02T00:49:32;20.80;99.90
14519;DHT22;7346;50.846;4.388;2022-09-02T00:52:04;20.70;99.90
14519;DHT22;7346;50.846;4.388;2022-09-02T00:54:36;20.70;99.90
14519;DHT22;7346;50.846;4.388;2022-09-02T00:57:07;20.70;99.90
14519;DHT22;7346;50.846;4.388;2022-09-02T00:59:42;20.70;99.90
14519;DHT22;7346;50.846;4.388;2022-09-02T01:02:14;20.70;99.90
14519;DHT22;7346;50.846;4.388;2022-09-02T01:04:42;20.70;99.90
14519;DHT22;7346;50.846;4.388;2022-09-02T01:07:11;20.70;99.90
14519;DHT22;7346;50.846;4.388;2022-09-02T01:09:39;20.60;99.90
14519;DHT22;7346;50.846;4.388;2022-09-02T01:12:06;20.70;99.90
14519;DHT22;7346;50.846;4.388;2022-09-02T01:14:34;20.70;99.90
14519;DHT22;7346;50.846;4.388;2022-09-02T01:17:02;20.70;99.90
14519;DHT22;7346;50.846;4.388;2022-09-02T01:19:36;20.70;99.90
14519;DHT22;7346;50.846;4.388;2022-09-02T01:22:14;20.70;99.90
14519;DHT22;7346;50.846;4.388;2022-09-02T01:24:41;20.50;99.90
14519;DHT22;7346;50.846;4.388;2022-09-02T01:27:08;20.40;99.90
14519;DHT22;7346;50.846;4.388;2022-09-02T01:29:35;20.40;99.90
14519;DHT22;7346;50.846;4.388;2022-09-02T01:32:02;20.40;99.90
14519;DHT22;7346;50.846;4.388;2022-09-02T01:34:29;20.40;99.90
14519;DHT22;7346;50.846;4.388;2022-09-02T01:36:56;20.40;99.90
14519;DHT22;7346;50.846;4.388;2022-09-02T01:39:24;20.40;99.90
14519;DHT22;7346;50.846;4.388;2022-09-02T01:41:51;20.40;99.90
14519;DHT22;7346;50.846;4.388;2022-09-02T01:44:18;20.40;99.90
14519;DHT22;7346;50.846;4.388;2022-09-02T01:46:45;20.50;99.90
14519;DHT22;7346;50.846;4.388;2022-09-02T01:49:12;20.50;99.90
14519;DHT22;7346;50.846;4.388;2022-09-02T01:51:39;20.30;99.90
14519;DHT22;7346;50.846;4.388;2022-09-02T01:54:07;20.20;99.90
14519;DHT22;7346;50.846;4.388;2022-09-02T01:56:35;20.20;99.90
14519;DHT22;7346;50.846;4.388;2022-09-02T01:59:02;20.20;99.90
14519;DHT22;7346;50.846;4.388;2022-09-02T02:01:29;20.10;99.90
14519;DHT22;7346;50.846;4.388;2022-09-02T02:03:56;20.00;99.90
14519;DHT22;7346;50.846;4.388;2022-09-02T02:06:23;20.00;99.90
14519;DHT22;7346;50.846;4.388;2022-09-02T02:08:50;20.10;99.90
14519;DHT22;7346;50.846;4.388;2022-09-02T02:11:18;20.10;99.90
14519;DHT22;7346;50.846;4.388;2022-09-02T02:13:47;20.10;99.90
14519;DHT22;7346;50.846;4.388;2022-09-02T02:16:14;20.10;99.90
14519;DHT22;7346;50.846;4.388;2022-09-02T02:18:41;20.10;99.90
14519;DHT22;7346;50.846;4.388;2022-09-02T02:21:08;19.90;99.90
14519;DHT22;7346;50.846;4.388;2022-09-02T02:23:36;19.80;99.90
14519;DHT22;7346;50.846;4.388;2022-09-02T02:26:03;19.80;99.90
14519;DHT22;7346;50.846;4.388;2022-09-02T02:28:30;19.80;99.90
14519;DHT22;7346;50.846;4.388;2022-09-02T02:30:58;19.90;99.90
14519;DHT22;7346;50.846;4.388;2022-09-02T02:33:26;19.90;99.90
14519;DHT22;7346;50.846;4.388;2022-09-02T02:35:54;19.90;99.90
14519;DHT22;7346;50.846;4.388;2022-09-02T02:38:21;20.00;99.90
14519;DHT22;7346;50.846;4.388;2022-09-02T02:40:48;20.00;99.90
14519;DHT22;7346;50.846;4.388;2022-09-02T02:43:15;20.00;99.90
14519;DHT22;7346;50.846;4.388;2022-09-02T02:45:42;19.90;99.90
14519;DHT22;7346;50.846;4.388;2022-09-02T02:48:10;19.90;99.90
14519;DHT22;7346;50.846;4.388;2022-09-02T02:50:38;19.80;99.90
14519;DHT22;7346;50.846;4.388;2022-09-02T02:53:05;19.90;99.90
14519;DHT22;7346;50.846;4.388;2022-09-02T02:55:33;19.90;99.90
14519;DHT22;7346;50.846;4.388;2022-09-02T02:58:00;19.90;99.90
14519;DHT22;7346;50.846;4.388;2022-09-02T03:00:29;19.90;99.90
14519;DHT22;7346;50.846;4.388;2022-09-02T03:02:57;19.80;99.90
14519;DHT22;7346;50.846;4.388;2022-09-02T03:05:28;19.80;99.90
14519;DHT22;7346;50.846;4.388;2022-09-02T03:07:55;19.80;99.90
14519;DHT22;7346;50.846;4.388;2022-09-02T03:10:23;19.70;99.90
14519;DHT22;7346;50.846;4.388;2022-09-02T03:12:51;19.70;99.90
14519;DHT22;7346;50.846;4.388;2022-09-02T03:15:20;19.70;99.90
14519;DHT22;7346;50.846;4.388;2022-09-02T03:17:47;19.70;99.90
14519;DHT22;7346;50.846;4.388;2022-09-02T03:20:15;19.70;99.90
14519;DHT22;7346;50.846;4.388;2022-09-02T03:22:44;19.80;99.90
14519;DHT22;7346;50.846;4.388;2022-09-02T03:25:14;19.90;99.90
14519;DHT22;7346;50.846;4.388;2022-09-02T03:27:41;20.00;99.90
14519;DHT22;7346;50.846;4.388;2022-09-02T03:30:12;20.00;99.90
14519;DHT22;7346;50.846;4.388;2022-09-02T03:32:40;20.10;99.90
14519;DHT22;7346;50.846;4.388;2022-09-02T03:35:10;20.00;99.90
14519;DHT22;7346;50.846;4.388;2022-09-02T03:37:38;20.00;99.90
14519;DHT22;7346;50.846;4.388;2022-09-02T03:40:09;20.00;99.90
14519;DHT22;7346;50.846;4.388;2022-09-02T03:42:37;20.00;99.90
14519;DHT22;7346;50.846;4.388;2022-09-02T03:45:06;19.90;99.90
14519;DHT22;7346;50.846;4.388;2022-09-02T03:47:34;19.70;99.90
14519;DHT22;7346;50.846;4.388;2022-09-02T03:50:01;19.90;99.90
14519;DHT22;7346;50.846;4.388;2022-09-02T03:52:29;20.00;99.90
14519;DHT22;7346;50.846;4.388;2022-09-02T03:54:55;20.00;99.90
14519;DHT22;7346;50.846;4.388;2022-09-02T03:57:24;19.90;99.90
14519;DHT22;7346;50.846;4.388;2022-09-02T03:59:51;19.70;99.90
14519;DHT22;7346;50.846;4.388;2022-09-02T04:02:18;19.70;99.90
14519;DHT22;7346;50.846;4.388;2022-09-02T04:04:45;19.80;99.90
14519;DHT22;7346;50.846;4.388;2022-09-02T04:07:12;19.70;99.90
14519;DHT22;7346;50.846;4.388;2022-09-02T04:09:39;19.80;99.90
14519;DHT22;7346;50.846;4.388;2022-09-02T04:12:07;19.80;99.90
14519;DHT22;7346;50.846;4.388;2022-09-02T04:14:35;19.70;99.90
14519;DHT22;7346;50.846;4.388;2022-09-02T04:17:02;19.70;99.90
14519;DHT22;7346;50.846;4.388;2022-09-02T04:19:29;19.70;99.90
14519;DHT22;7346;50.846;4.388;2022-09-02T04:21:56;19.80;99.90
14519;DHT22;7346;50.846;4.388;2022-09-02T04:24:23;19.90;99.90
14519;DHT22;7346;50.846;4.388;2022-09-02T04:26:50;19.90;99.90
14519;DHT22;7346;50.846;4.388;2022-09-02T04:29:17;19.90;99.90
14519;DHT22;7346;50.846;4.388;2022-09-02T04:31:46;19.90;99.90
14519;DHT22;7346;50.846;4.388;2022-09-02T04:34:12;19.80;99.90
14519;DHT22;7346;50.846;4.388;2022-09-02T04:36:39;19.70;99.90
14519;DHT22;7346;50.846;4.388;2022-09-02T04:39:06;19.50;99.90
14519;DHT22;7346;50.846;4.388;2022-09-02T04:41:34;19.40;99.90
14519;DHT22;7346;50.846;4.388;2022-09-02T04:44:03;19.30;99.90
14519;DHT22;7346;50.846;4.388;2022-09-02T04:46:31;19.30;99.90
14519;DHT22;7346;50.846;4.388;2022-09-02T04:49:00;19.20;99.90
14519;DHT22;7346;50.846;4.388;2022-09-02T04:51:26;19.20;99.90
14519;DHT22;7346;50.846;4.388;2022-09-02T04:53:54;19.30;99.90
14519;DHT22;7346;50.846;4.388;2022-09-02T04:56:24;19.20;99.90
14519;DHT22;7346;50.846;4.388;2022-09-02T04:58:51;19.30;99.90
14519;DHT22;7346;50.846;4.388;2022-09-02T05:01:22;19.30;99.90
14519;DHT22;7346;50.846;4.388;2022-09-02T05:03:49;19.40;99.90
14519;DHT22;7346;50.846;4.388;2022-09-02T05:06:19;19.50;99.90
14519;DHT22;7346;50.846;4.388;2022-09-02T05:08:47;19.40;99.90
14519;DHT22;7346;50.846;4.388;2022-09-02T05:11:16;19.40;99.90
14519;DHT22;7346;50.846;4.388;2022-09-02T05:13:44;19.40;99.90
14519;DHT22;7346;50.846;4.388;2022-09-02T05:16:14;19.50;99.90
14519;DHT22;7346;50.846;4.388;2022-09-02T05:18:41;19.40;99.90
14519;DHT22;7346;50.846;4.388;2022-09-02T05:21:08;19.40;99.90
14519;DHT22;7346;50.846;4.388;2022-09-02T05:23:36;19.40;99.90
14519;DHT22;7346;50.846;4.388;2022-09-02T05:26:03;19.30;99.90
14519;DHT22;7346;50.846;4.388;2022-09-02T05:28:31;19.40;99.90
14519;DHT22;7346;50.846;4.388;2022-09-02T05:31:02;19.30;99.90
14519;DHT22;7346;50.846;4.388;2022-09-02T05:33:30;19.20;99.90
14519;DHT22;7346;50.846;4.388;2022-09-02T05:35:57;19.30;99.90
14519;DHT22;7346;50.846;4.388;2022-09-02T05:38:24;19.40;99.90
14519;DHT22;7346;50.846;4.388;2022-09-02T05:40:52;19.50;99.90
14519;DHT22;7346;50.846;4.388;2022-09-02T05:43:22;19.50;99.90
14519;DHT22;7346;50.846;4.388;2022-09-02T05:45:49;19.50;99.90
14519;DHT22;7346;50.846;4.388;2022-09-02T05:48:16;19.60;99.90
14519;DHT22;7346;50.846;4.388;2022-09-02T05:51:03;19.60;99.90
14519;DHT22;7346;50.846;4.388;2022-09-02T05:53:31;19.70;99.90
14519;DHT22;7346;50.846;4.388;2022-09-02T05:56:02;19.60;99.90
14519;DHT22;7346;50.846;4.388;2022-09-02T05:58:29;19.80;99.90
14519;DHT22;7346;50.846;4.388;2022-09-02T06:00:57;19.80;99.90
14519;DHT22;7346;50.846;4.388;2022-09-02T06:03:26;19.70;99.90
14519;DHT22;7346;50.846;4.388;2022-09-02T06:05:55;19.80;99.90
14519;DHT22;7346;50.846;4.388;2022-09-02T06:08:22;19.80;99.90
14519;DHT22;7346;50.846;4.388;2022-09-02T06:10:49;19.80;99.90
14519;DHT22;7346;50.846;4.388;2022-09-02T06:13:17;19.90;99.90
14519;DHT22;7346;50.846;4.388;2022-09-02T06:15:47;20.10;99.90
14519;DHT22;7346;50.846;4.388;2022-09-02T06:18:14;20.00;99.90
14519;DHT22;7346;50.846;4.388;2022-09-02T06:20:43;20.10;99.90
14519;DHT22;7346;50.846;4.388;2022-09-02T06:23:13;20.20;99.90
14519;DHT22;7346;50.846;4.388;2022-09-02T06:25:42;20.20;99.90
14519;DHT22;7346;50.846;4.388;2022-09-02T06:28:10;20.10;99.90
14519;DHT22;7346;50.846;4.388;2022-09-02T06:30:40;20.10;99.90
14519;DHT22;7346;50.846;4.388;2022-09-02T06:33:08;20.10;99.90
14519;DHT22;7346;50.846;4.388;2022-09-02T06:35:36;20.10;99.90
14519;DHT22;7346;50.846;4.388;2022-09-02T06:38:04;20.10;99.90
14519;DHT22;7346;50.846;4.388;2022-09-02T06:40:31;20.20;99.90
14519;DHT22;7346;50.846;4.388;2022-09-02T06:42:59;20.30;99.90
14519;DHT22;7346;50.846;4.388;2022-09-02T06:45:26;20.30;99.90
14519;DHT22;7346;50.846;4.388;2022-09-02T06:47:54;20.30;99.90
14519;DHT22;7346;50.846;4.388;2022-09-02T06:50:21;20.40;99.90
14519;DHT22;7346;50.846;4.388;2022-09-02T06:52:48;20.50;99.90
14519;DHT22;7346;50.846;4.388;2022-09-02T06:55:16;20.30;99.90
14519;DHT22;7346;50.846;4.388;2022-09-02T06:57:43;20.30;99.90
14519;DHT22;7346;50.846;4.388;2022-09-02T07:00:10;20.40;99.90
14519;DHT22;7346;50.846;4.388;2022-09-02T07:02:38;20.50;99.90
14519;DHT22;7346;50.846;4.388;2022-09-02T07:05:07;20.60;99.90
14519;DHT22;7346;50.846;4.388;2022-09-02T07:07:40;20.70;99.90
14519;DHT22;7346;50.846;4.388;2022-09-02T07:10:11;20.70;99.90
14519;DHT22;7346;50.846;4.388;2022-09-02T07:12:40;20.80;99.90
14519;DHT22;7346;50.846;4.388;2022-09-02T07:15:08;20.80;99.90
14519;DHT22;7346;50.846;4.388;2022-09-02T07:17:35;21.00;99.90
14519;DHT22;7346;50.846;4.388;2022-09-02T07:20:03;21.00;99.90
14519;DHT22;7346;50.846;4.388;2022-09-02T07:22:31;21.00;99.90
14519;DHT22;7346;50.846;4.388;2022-09-02T07:24:58;21.10;99.90
14519;DHT22;7346;50.846;4.388;2022-09-02T07:27:25;21.30;99.90
14519;DHT22;7346;50.846;4.388;2022-09-02T07:29:52;21.30;99.90
14519;DHT22;7346;50.846;4.388;2022-09-02T07:32:19;21.30;99.90
14519;DHT22;7346;50.846;4.388;2022-09-02T07:34:46;21.50;99.90
14519;DHT22;7346;50.846;4.388;2022-09-02T07:37:13;21.50;99.90
14519;DHT22;7346;50.846;4.388;2022-09-02T07:39:42;21.50;99.90
14519;DHT22;7346;50.846;4.388;2022-09-02T07:42:10;21.50;99.90
14519;DHT22;7346;50.846;4.388;2022-09-02T07:44:37;21.50;99.90
14519;DHT22;7346;50.846;4.388;2022-09-02T07:47:05;21.60;99.90
14519;DHT22;7346;50.846;4.388;2022-09-02T07:49:33;21.50;99.90
14519;DHT22;7346;50.846;4.388;2022-09-02T07:52:00;21.60;99.90
14519;DHT22;7346;50.846;4.388;2022-09-02T07:54:27;21.60;99.90
14519;DHT22;7346;50.846;4.388;2022-09-02T07:56:57;21.60;99.90
14519;DHT22;7346;50.846;4.388;2022-09-02T07:59:24;21.60;99.90
14519;DHT22;7346;50.846;4.388;2022-09-02T08:01:51;21.60;99.90
14519;DHT22;7346;50.846;4.388;2022-09-02T08:04:20;21.80;99.90
14519;DHT22;7346;50.846;4.388;2022-09-02T08:06:48;22.10;99.90
14519;DHT22;7346;50.846;4.388;2022-09-02T08:09:16;22.40;99.90
14519;DHT22;7346;50.846;4.388;2022-09-02T08:11:45;22.60;99.90
14519;DHT22;7346;50.846;4.388;2022-09-02T08:14:16;22.80;99.90
14519;DHT22;7346;50.846;4.388;2022-09-02T08:16:44;22.90;99.90
14519;DHT22;7346;50.846;4.388;2022-09-02T08:19:11;22.80;99.90
14519;DHT22;7346;50.846;4.388;2022-09-02T08:21:39;22.80;99.90
14519;DHT22;7346;50.846;4.388;2022-09-02T08:24:06;22.70;99.90
14519;DHT22;7346;50.846;4.388;2022-09-02T08:26:34;22.80;99.90
14519;DHT22;7346;50.846;4.388;2022-09-02T08:29:02;22.90;99.90
14519;DHT22;7346;50.846;4.388;2022-09-02T08:31:31;22.70;99.90
14519;DHT22;7346;50.846;4.388;2022-09-02T08:33:58;22.70;99.90
14519;DHT22;7346;50.846;4.388;2022-09-02T08:36:25;22.70;99.90
14519;DHT22;7346;50.846;4.388;2022-09-02T08:38:53;22.70;99.90
14519;DHT22;7346;50.846;4.388;2022-09-02T08:41:22;22.80;99.90
14519;DHT22;7346;50.846;4.388;2022-09-02T08:43:50;23.00;99.90
14519;DHT22;7346;50.846;4.388;2022-09-02T08:46:18;23.10;99.90
14519;DHT22;7346;50.846;4.388;2022-09-02T08:48:54;23.10;99.90
14519;DHT22;7346;50.846;4.388;2022-09-02T08:51:28;23.10;99.90
14519;DHT22;7346;50.846;4.388;2022-09-02T08:54:01;23.20;99.90
14519;DHT22;7346;50.846;4.388;2022-09-02T08:56:30;23.30;99.90
14519;DHT22;7346;50.846;4.388;2022-09-02T08:58:57;23.40;99.90
14519;DHT22;7346;50.846;4.388;2022-09-02T09:01:33;23.50;99.90
14519;DHT22;7346;50.846;4.388;2022-09-02T09:04:17;23.50;99.90
14519;DHT22;7346;50.846;4.388;2022-09-02T09:07:09;23.60;99.90
14519;DHT22;7346;50.846;4.388;2022-09-02T09:09:48;23.50;99.90
14519;DHT22;7346;50.846;4.388;2022-09-02T09:12:23;23.60;99.90
14519;DHT22;7346;50.846;4.388;2022-09-02T09:14:56;23.70;99.90
14519;DHT22;7346;50.846;4.388;2022-09-02T09:17:29;23.80;99.90
14519;DHT22;7346;50.846;4.388;2022-09-02T09:20:02;24.00;99.90
14519;DHT22;7346;50.846;4.388;2022-09-02T09:22:34;24.10;99.90
14519;DHT22;7346;50.846;4.388;2022-09-02T09:25:04;24.30;99.90
14519;DHT22;7346;50.846;4.388;2022-09-02T09:27:32;24.40;99.90
14519;DHT22;7346;50.846;4.388;2022-09-02T09:29:59;24.50;99.90
14519;DHT22;7346;50.846;4.388;2022-09-02T09:32:30;24.70;99.90
14519;DHT22;7346;50.846;4.388;2022-09-02T09:35:03;24.80;99.90
14519;DHT22;7346;50.846;4.388;2022-09-02T09:37:34;24.70;99.90
14519;DHT22;7346;50.846;4.388;2022-09-02T09:40:20;24.60;99.90
14519;DHT22;7346;50.846;4.388;2022-09-02T09:42:49;24.60;99.90
14519;DHT22;7346;50.846;4.388;2022-09-02T09:45:18;24.60;99.90
14519;DHT22;7346;50.846;4.388;2022-09-02T09:48:18;24.80;99.90
14519;DHT22;7346;50.846;4.388;2022-09-02T09:51:10;24.80;99.90
14519;DHT22;7346;50.846;4.388;2022-09-02T09:53:37;24.90;99.90
14519;DHT22;7346;50.846;4.388;2022-09-02T09:56:06;25.00;99.90
14519;DHT22;7346;50.846;4.388;2022-09-02T09:58:48;25.10;99.90
14519;DHT22;7346;50.846;4.388;2022-09-02T10:01:18;25.20;99.90
14519;DHT22;7346;50.846;4.388;2022-09-02T10:03:48;25.30;99.90
14519;DHT22;7346;50.846;4.388;2022-09-02T10:06:20;25.30;99.90
14519;DHT22;7346;50.846;4.388;2022-09-02T10:08:52;25.40;99.90
14519;DHT22;7346;50.846;4.388;2022-09-02T10:11:22;25.30;99.90
14519;DHT22;7346;50.846;4.388;2022-09-02T10:13:49;25.40;99.90
14519;DHT22;7346;50.846;4.388;2022-09-02T10:16:41;25.40;99.90
14519;DHT22;7346;50.846;4.388;2022-09-02T10:19:16;25.50;99.90
14519;DHT22;7346;50.846;4.388;2022-09-02T10:22:02;25.70;99.90
14519;DHT22;7346;50.846;4.388;2022-09-02T10:24:48;25.80;99.90
14519;DHT22;7346;50.846;4.388;2022-09-02T10:27:23;25.40;99.90
14519;DHT22;7346;50.846;4.388;2022-09-02T10:29:58;25.60;99.90
14519;DHT22;7346;50.846;4.388;2022-09-02T10:32:37;25.80;99.90
14519;DHT22;7346;50.846;4.388;2022-09-02T10:35:12;25.80;99.90
14519;DHT22;7346;50.846;4.388;2022-09-02T10:37:57;25.90;99.90
14519;DHT22;7346;50.846;4.388;2022-09-02T10:40:30;26.10;99.90
14519;DHT22;7346;50.846;4.388;2022-09-02T10:43:03;26.20;99.90
14519;DHT22;7346;50.846;4.388;2022-09-02T10:45:35;26.20;99.90
14519;DHT22;7346;50.846;4.388;2022-09-02T10:48:13;26.30;99.90
14519;DHT22;7346;50.846;4.388;2022-09-02T10:50:47;26.40;99.90
14519;DHT22;7346;50.846;4.388;2022-09-02T10:53:28;26.30;99.90
14519;DHT22;7346;50.846;4.388;2022-09-02T10:56:00;26.40;99.90
14519;DHT22;7346;50.846;4.388;2022-09-02T10:58:38;26.20;99.90
14519;DHT22;7346;50.846;4.388;2022-09-02T11:01:07;26.20;99.90
14519;DHT22;7346;50.846;4.388;2022-09-02T11:03:39;26.30;99.90
14519;DHT22;7346;50.846;4.388;2022-09-02T11:06:11;26.30;99.90
14519;DHT22;7346;50.846;4.388;2022-09-02T11:08:45;26.50;99.90
14519;DHT22;7346;50.846;4.388;2022-09-02T11:11:16;26.60;99.90
14519;DHT22;7346;50.846;4.388;2022-09-02T11:13:53;26.60;99.90
14519;DHT22;7346;50.846;4.388;2022-09-02T11:16:26;26.60;99.90
14519;DHT22;7346;50.846;4.388;2022-09-02T11:18:58;26.30;99.90
14519;DHT22;7346;50.846;4.388;2022-09-02T11:21:38;26.20;99.90
14519;DHT22;7346;50.846;4.388;2022-09-02T11:24:09;26.20;99.90
14519;DHT22;7346;50.846;4.388;2022-09-02T11:26:47;26.30;99.90
14519;DHT22;7346;50.846;4.388;2022-09-02T11:29:18;26.30;99.90
14519;DHT22;7346;50.846;4.388;2022-09-02T11:31:50;26.30;99.90
14519;DHT22;7346;50.846;4.388;2022-09-02T11:34:34;26.30;99.90
14519;DHT22;7346;50.846;4.388;2022-09-02T11:37:05;26.40;99.90
14519;DHT22;7346;50.846;4.388;2022-09-02T11:39:38;26.50;99.90
14519;DHT22;7346;50.846;4.388;2022-09-02T11:42:16;26.60;99.90
14519;DHT22;7346;50.846;4.388;2022-09-02T11:45:03;26.60;99.90
14519;DHT22;7346;50.846;4.388;2022-09-02T11:51:09;26.90;99.90
14519;DHT22;7346;50.846;4.388;2022-09-02T11:53:40;26.70;99.30
14519;DHT22;7346;50.846;4.388;2022-09-02T11:56:13;26.90;99.30
14519;DHT22;7346;50.846;4.388;2022-09-02T11:58:44;26.80;99.10
14519;DHT22;7346;50.846;4.388;2022-09-02T12:01:28;26.90;98.90
14519;DHT22;7346;50.846;4.388;2022-09-02T12:03:59;27.00;98.90
14519;DHT22;7346;50.846;4.388;2022-09-02T12:06:28;26.90;98.50
14519;DHT22;7346;50.846;4.388;2022-09-02T12:09:00;27.00;98.40
14519;DHT22;7346;50.846;4.388;2022-09-02T12:11:46;27.00;98.40
14519;DHT22;7346;50.846;4.388;2022-09-02T12:14:59;27.10;98.00
14519;DHT22;7346;50.846;4.388;2022-09-02T12:17:45;27.10;97.50
14519;DHT22;7346;50.846;4.388;2022-09-02T12:24:10;27.20;96.40
14519;DHT22;7346;50.846;4.388;2022-09-02T12:27:09;27.40;96.30
14519;DHT22;7346;50.846;4.388;2022-09-02T12:29:37;27.40;95.80
14519;DHT22;7346;50.846;4.388;2022-09-02T12:32:04;27.50;94.60
14519;DHT22;7346;50.846;4.388;2022-09-02T12:35:05;27.50;94.70
14519;DHT22;7346;50.846;4.388;2022-09-02T12:37:53;27.10;94.70
14519;DHT22;7346;50.846;4.388;2022-09-02T12:40:33;26.90;95.00
14519;DHT22;7346;50.846;4.388;2022-09-02T12:43:17;27.00;95.80
14519;DHT22;7346;50.846;4.388;2022-09-02T12:45:45;27.20;95.00
14519;DHT22;7346;50.846;4.388;2022-09-02T12:48:17;27.50;94.70
14519;DHT22;7346;50.846;4.388;2022-09-02T12:50:53;27.80;93.50
14519;DHT22;7346;50.846;4.388;2022-09-02T12:53:31;27.90;92.40
14519;DHT22;7346;50.846;4.388;2022-09-02T12:56:01;27.70;92.30
14519;DHT22;7346;50.846;4.388;2022-09-02T12:58:35;27.80;92.20
14519;DHT22;7346;50.846;4.388;2022-09-02T13:01:16;27.90;91.60
14519;DHT22;7346;50.846;4.388;2022-09-02T13:04:19;28.00;91.30
14519;DHT22;7346;50.846;4.388;2022-09-02T13:07:11;28.10;91.40
14519;DHT22;7346;50.846;4.388;2022-09-02T13:09:58;28.30;91.00
14519;DHT22;7346;50.846;4.388;2022-09-02T13:12:52;28.50;90.90
14519;DHT22;7346;50.846;4.388;2022-09-02T13:15:33;28.80;90.70
14519;DHT22;7346;50.846;4.388;2022-09-02T13:21:20;28.60;90.30
14519;DHT22;7346;50.846;4.388;2022-09-02T13:24:08;28.70;90.30
14519;DHT22;7346;50.846;4.388;2022-09-02T13:27:03;28.80;89.30
14519;DHT22;7346;50.846;4.388;2022-09-02T13:32:39;28.90;88.60
14519;DHT22;7346;50.846;4.388;2022-09-02T13:35:15;29.10;87.40
14519;DHT22;7346;50.846;4.388;2022-09-02T13:37:43;29.00;87.00
14519;DHT22;7346;50.846;4.388;2022-09-02T13:40:18;28.90;85.70
14519;DHT22;7346;50.846;4.388;2022-09-02T13:42:48;28.90;85.50
14519;DHT22;7346;50.846;4.388;2022-09-02T13:45:17;28.70;85.60
14519;DHT22;7346;50.846;4.388;2022-09-02T13:47:50;28.60;85.10
14519;DHT22;7346;50.846;4.388;2022-09-02T13:50:20;28.40;86.10
14519;DHT22;7346;50.846;4.388;2022-09-02T13:52:51;28.50;84.10
14519;DHT22;7346;50.846;4.388;2022-09-02T13:55:19;28.40;83.30
14519;DHT22;7346;50.846;4.388;2022-09-02T13:57:53;28.60;83.70
14519;DHT22;7346;50.846;4.388;2022-09-02T14:00:27;28.80;82.50
14519;DHT22;7346;50.846;4.388;2022-09-02T14:03:01;28.80;82.20
14519;DHT22;7346;50.846;4.388;2022-09-02T14:05:28;28.90;82.20
14519;DHT22;7346;50.846;4.388;2022-09-02T14:07:57;28.60;82.10
14519;DHT22;7346;50.846;4.388;2022-09-02T14:10:26;28.60;81.90
14519;DHT22;7346;50.846;4.388;2022-09-02T14:12:54;28.70;81.20
14519;DHT22;7346;50.846;4.388;2022-09-02T14:15:27;28.80;81.90
14519;DHT22;7346;50.846;4.388;2022-09-02T14:18:11;28.80;81.20
14519;DHT22;7346;50.846;4.388;2022-09-02T14:20:50;28.70;81.30
14519;DHT22;7346;50.846;4.388;2022-09-02T14:23:18;28.40;82.20
14519;DHT22;7346;50.846;4.388;2022-09-02T14:25:49;28.50;82.50
14519;DHT22;7346;50.846;4.388;2022-09-02T14:28:21;28.70;82.20
14519;DHT22;7346;50.846;4.388;2022-09-02T14:30:58;28.90;80.50
14519;DHT22;7346;50.846;4.388;2022-09-02T14:33:39;29.10;79.60
14519;DHT22;7346;50.846;4.388;2022-09-02T14:36:08;29.20;79.70
14519;DHT22;7346;50.846;4.388;2022-09-02T14:38:52;29.10;79.80
14519;DHT22;7346;50.846;4.388;2022-09-02T14:41:22;29.10;79.50
14519;DHT22;7346;50.846;4.388;2022-09-02T14:43:52;29.20;77.70
14519;DHT22;7346;50.846;4.388;2022-09-02T14:46:29;29.10;77.20
14519;DHT22;7346;50.846;4.388;2022-09-02T14:49:02;29.10;77.80
14519;DHT22;7346;50.846;4.388;2022-09-02T14:51:35;29.20;77.60
14519;DHT22;7346;50.846;4.388;2022-09-02T14:54:03;29.30;76.80
14519;DHT22;7346;50.846;4.388;2022-09-02T14:56:45;29.20;76.50
14519;DHT22;7346;50.846;4.388;2022-09-02T14:59:13;29.20;76.00
14519;DHT22;7346;50.846;4.388;2022-09-02T15:01:41;29.30;75.40
14519;DHT22;7346;50.846;4.388;2022-09-02T15:04:09;29.50;75.70
14519;DHT22;7346;50.846;4.388;2022-09-02T15:06:36;30.20;74.20
14519;DHT22;7346;50.846;4.388;2022-09-02T15:09:03;30.00;74.30
14519;DHT22;7346;50.846;4.388;2022-09-02T15:11:30;30.30;73.60
14519;DHT22;7346;50.846;4.388;2022-09-02T15:13:57;31.20;72.40
14519;DHT22;7346;50.846;4.388;2022-09-02T15:16:24;31.80;70.30
14519;DHT22;7346;50.846;4.388;2022-09-02T15:18:51;32.80;68.80
14519;DHT22;7346;50.846;4.388;2022-09-02T15:21:20;32.20;68.30
14519;DHT22;7346;50.846;4.388;2022-09-02T15:23:47;31.70;69.30
14519;DHT22;7346;50.846;4.388;2022-09-02T15:26:15;31.40;68.20
14519;DHT22;7346;50.846;4.388;2022-09-02T15:28:42;31.20;67.90
14519;DHT22;7346;50.846;4.388;2022-09-02T15:31:10;30.90;68.20
14519;DHT22;7346;50.846;4.388;2022-09-02T15:33:37;30.40;68.50
14519;DHT22;7346;50.846;4.388;2022-09-02T15:36:06;30.40;68.80
14519;DHT22;7346;50.846;4.388;2022-09-02T15:38:36;30.20;69.10
14519;DHT22;7346;50.846;4.388;2022-09-02T15:41:13;30.10;69.70
14519;DHT22;7346;50.846;4.388;2022-09-02T15:43:41;29.90;68.50
14519;DHT22;7346;50.846;4.388;2022-09-02T15:46:25;29.90;68.30
14519;DHT22;7346;50.846;4.388;2022-09-02T15:48:54;29.80;69.10
14519;DHT22;7346;50.846;4.388;2022-09-02T15:51:23;29.80;68.50
14519;DHT22;7346;50.846;4.388;2022-09-02T15:53:58;29.60;69.10
14519;DHT22;7346;50.846;4.388;2022-09-02T15:56:27;29.60;69.70
14519;DHT22;7346;50.846;4.388;2022-09-02T15:58:56;29.50;69.00
14519;DHT22;7346;50.846;4.388;2022-09-02T16:01:24;29.40;69.80
14519;DHT22;7346;50.846;4.388;2022-09-02T16:03:52;29.40;68.60
14519;DHT22;7346;50.846;4.388;2022-09-02T16:06:19;29.30;68.80
14519;DHT22;7346;50.846;4.388;2022-09-02T16:08:46;29.30;69.30
14519;DHT22;7346;50.846;4.388;2022-09-02T16:11:15;29.30;69.20
14519;DHT22;7346;50.846;4.388;2022-09-02T16:13:42;29.30;69.40
14519;DHT22;7346;50.846;4.388;2022-09-02T16:16:11;29.00;69.50
14519;DHT22;7346;50.846;4.388;2022-09-02T16:18:39;29.00;70.00
14519;DHT22;7346;50.846;4.388;2022-09-02T16:21:08;28.90;69.60